sensor_id;sensor_type;location;lat;lon;timestamp;P1;durP1;ratioP1;P2;durP2;ratioP2
79122;SDS011;68526;44.600;26.032;2023-04-01T00:00:13;20.75;;;17.83;;
79122;SDS011;68526;44.600;26.032;2023-04-01T00:00:29;21.80;;;17.63;;
79122;SDS011;68526;44.600;26.032;2023-04-01T00:00:45;22.83;;;17.75;;
79122;SDS011;68526;44.600;26.032;2023-04-01T00:01:02;21.25;;;17.23;;
79122;SDS011;68526;44.600;26.032;2023-04-01T00:01:19;23.93;;;17.17;;
79122;SDS011;68526;44.600;26.032;2023-04-01T00:01:36;23.55;;;17.13;;
79122;SDS011;68526;44.600;26.032;2023-04-01T00:01:52;21.40;;;17.60;;
79122;SDS011;68526;44.600;26.032;2023-04-01T00:02:07;22.52;;;17.02;;
79122;SDS011;68526;44.600;26.032;2023-04-01T00:02:24;22.10;;;16.05;;
79122;SDS011;68526;44.600;26.032;2023-04-01T00:02:41;20.40;;;16.60;;
79122;SDS011;68526;44.600;26.032;2023-04-01T00:02:56;20.33;;;17.08;;
79122;SDS011;68526;44.600;26.032;2023-04-01T00:03:12;19.98;;;16.90;;
79122;SDS011;68526;44.600;26.032;2023-04-01T00:03:28;20.45;;;17.58;;
79122;SDS011;68526;44.600;26.032;2023-04-01T00:03:44;21.80;;;17.75;;
79122;SDS011;68526;44.600;26.032;2023-04-01T00:04:01;21.20;;;17.25;;
79122;SDS011;68526;44.600;26.032;2023-04-01T00:04:17;20.20;;;17.35;;
79122;SDS011;68526;44.600;26.032;2023-04-01T00:04:33;19.97;;;17.67;;
79122;SDS011;68526;44.600;26.032;2023-04-01T00:04:49;21.88;;;17.92;;
79122;SDS011;68526;44.600;26.032;2023-04-01T00:05:06;22.17;;;18.20;;
79122;SDS011;68526;44.600;26.032;2023-04-01T00:05:22;20.13;;;17.48;;
79122;SDS011;68526;44.600;26.032;2023-04-01T00:05:40;20.40;;;17.50;;
79122;SDS011;68526;44.600;26.032;2023-04-01T00:05:56;20.88;;;18.30;;
79122;SDS011;68526;44.600;26.032;2023-04-01T00:06:14;21.48;;;18.17;;
79122;SDS011;68526;44.600;26.032;2023-04-01T00:06:32;21.88;;;17.77;;
79122;SDS011;68526;44.600;26.032;2023-04-01T00:06:48;21.67;;;17.63;;
79122;SDS011;68526;44.600;26.032;2023-04-01T00:07:06;19.63;;;16.95;;
79122;SDS011;68526;44.600;26.032;2023-04-01T00:07:22;20.30;;;17.15;;
79122;SDS011;68526;44.600;26.032;2023-04-01T00:07:38;22.20;;;17.83;;
79122;SDS011;68526;44.600;26.032;2023-04-01T00:07:55;21.88;;;17.75;;
79122;SDS011;68526;44.600;26.032;2023-04-01T00:08:11;20.63;;;17.90;;
79122;SDS011;68526;44.600;26.032;2023-04-01T00:08:27;20.63;;;17.80;;
79122;SDS011;68526;44.600;26.032;2023-04-01T00:08:44;19.42;;;17.05;;
79122;SDS011;68526;44.600;26.032;2023-04-01T00:09:00;19.85;;;17.10;;
79122;SDS011;68526;44.600;26.032;2023-04-01T00:09:16;21.53;;;17.53;;
79122;SDS011;68526;44.600;26.032;2023-04-01T00:09:32;22.98;;;17.92;;
79122;SDS011;68526;44.600;26.032;2023-04-01T00:09:48;22.10;;;17.35;;
79122;SDS011;68526;44.600;26.032;2023-04-01T00:10:05;20.20;;;16.83;;
79122;SDS011;68526;44.600;26.032;2023-04-01T00:10:23;20.60;;;17.30;;
79122;SDS011;68526;44.600;26.032;2023-04-01T00:10:39;20.52;;;16.98;;
79122;SDS011;68526;44.600;26.032;2023-04-01T00:10:55;21.10;;;17.63;;
79122;SDS011;68526;44.600;26.032;2023-04-01T00:11:12;22.33;;;18.13;;
79122;SDS011;68526;44.600;26.032;2023-04-01T00:11:27;21.30;;;17.58;;
79122;SDS011;68526;44.600;26.032;2023-04-01T00:11:44;20.58;;;17.75;;
79122;SDS011;68526;44.600;26.032;2023-04-01T00:12:00;22.42;;;17.73;;
79122;SDS011;68526;44.600;26.032;2023-04-01T00:12:16;22.65;;;17.58;;
79122;SDS011;68526;44.600;26.032;2023-04-01T00:12:32;23.57;;;17.90;;
79122;SDS011;68526;44.600;26.032;2023-04-01T00:12:48;21.77;;;17.60;;
79122;SDS011;68526;44.600;26.032;2023-04-01T00:13:04;20.10;;;17.38;;
79122;SDS011;68526;44.600;26.032;2023-04-01T00:13:20;20.80;;;17.70;;
79122;SDS011;68526;44.600;26.032;2023-04-01T00:13:38;22.05;;;17.10;;
79122;SDS011;68526;44.600;26.032;2023-04-01T00:13:53;21.50;;;16.98;;
79122;SDS011;68526;44.600;26.032;2023-04-01T00:14:09;21.52;;;17.25;;
79122;SDS011;68526;44.600;26.032;2023-04-01T00:14:25;20.75;;;17.25;;
79122;SDS011;68526;44.600;26.032;2023-04-01T00:14:41;19.50;;;17.13;;
79122;SDS011;68526;44.600;26.032;2023-04-01T00:14:58;19.40;;;16.90;;
79122;SDS011;68526;44.600;26.032;2023-04-01T00:15:14;19.35;;;17.10;;
79122;SDS011;68526;44.600;26.032;2023-04-01T00:15:30;20.65;;;16.83;;
79122;SDS011;68526;44.600;26.032;2023-04-01T00:15:46;21.85;;;17.25;;
79122;SDS011;68526;44.600;26.032;2023-04-01T00:16:08;19.90;;;17.67;;
79122;SDS011;68526;44.600;26.032;2023-04-01T00:16:26;19.35;;;17.30;;
79122;SDS011;68526;44.600;26.032;2023-04-01T00:16:41;19.73;;;16.85;;
79122;SDS011;68526;44.600;26.032;2023-04-01T00:16:57;20.25;;;17.13;;
79122;SDS011;68526;44.600;26.032;2023-04-01T00:17:13;20.15;;;17.67;;
79122;SDS011;68526;44.600;26.032;2023-04-01T00:17:30;20.65;;;17.63;;
79122;SDS011;68526;44.600;26.032;2023-04-01T00:17:46;20.05;;;17.13;;
79122;SDS011;68526;44.600;26.032;2023-04-01T00:18:02;19.48;;;16.48;;
79122;SDS011;68526;44.600;26.032;2023-04-01T00:18:18;19.90;;;16.58;;
79122;SDS011;68526;44.600;26.032;2023-04-01T00:18:34;19.83;;;16.33;;
79122;SDS011;68526;44.600;26.032;2023-04-01T00:18:50;19.92;;;16.50;;
79122;SDS011;68526;44.600;26.032;2023-04-01T00:19:07;19.50;;;17.25;;
79122;SDS011;68526;44.600;26.032;2023-04-01T00:19:23;20.40;;;17.05;;
79122;SDS011;68526;44.600;26.032;2023-04-01T00:19:39;19.67;;;17.02;;
79122;SDS011;68526;44.600;26.032;2023-04-01T00:19:55;19.90;;;17.47;;
79122;SDS011;68526;44.600;26.032;2023-04-01T00:20:11;20.05;;;17.48;;
79122;SDS011;68526;44.600;26.032;2023-04-01T00:20:29;20.67;;;17.48;;
79122;SDS011;68526;44.600;26.032;2023-04-01T00:20:47;20.83;;;17.35;;
79122;SDS011;68526;44.600;26.032;2023-04-01T00:21:04;20.75;;;17.85;;
79122;SDS011;68526;44.600;26.032;2023-04-01T00:21:20;20.42;;;17.08;;
79122;SDS011;68526;44.600;26.032;2023-04-01T00:21:38;19.50;;;16.63;;
79122;SDS011;68526;44.600;26.032;2023-04-01T00:21:55;20.27;;;16.65;;
79122;SDS011;68526;44.600;26.032;2023-04-01T00:22:12;19.77;;;16.63;;
79122;SDS011;68526;44.600;26.032;2023-04-01T00:22:28;20.65;;;16.58;;
79122;SDS011;68526;44.600;26.032;2023-04-01T00:22:43;21.90;;;17.05;;
79122;SDS011;68526;44.600;26.032;2023-04-01T00:22:59;19.85;;;16.98;;
79122;SDS011;68526;44.600;26.032;2023-04-01T00:23:15;18.83;;;16.53;;
79122;SDS011;68526;44.600;26.032;2023-04-01T00:23:31;20.05;;;16.63;;
79122;SDS011;68526;44.600;26.032;2023-04-01T00:23:49;21.48;;;17.13;;
79122;SDS011;68526;44.600;26.032;2023-04-01T00:24:05;21.42;;;17.45;;
79122;SDS011;68526;44.600;26.032;2023-04-01T00:24:21;19.40;;;16.70;;
79122;SDS011;68526;44.600;26.032;2023-04-01T00:24:38;17.73;;;15.82;;
79122;SDS011;68526;44.600;26.032;2023-04-01T00:24:54;18.33;;;16.00;;
79122;SDS011;68526;44.600;26.032;2023-04-01T00:25:10;19.95;;;16.55;;
79122;SDS011;68526;44.600;26.032;2023-04-01T00:25:26;20.80;;;17.00;;
79122;SDS011;68526;44.600;26.032;2023-04-01T00:25:43;20.00;;;17.00;;
79122;SDS011;68526;44.600;26.032;2023-04-01T00:26:00;19.20;;;16.63;;
79122;SDS011;68526;44.600;26.032;2023-04-01T00:26:17;19.58;;;16.70;;
79122;SDS011;68526;44.600;26.032;2023-04-01T00:26:36;19.92;;;16.98;;
79122;SDS011;68526;44.600;26.032;2023-04-01T00:26:51;19.73;;;16.63;;
79122;SDS011;68526;44.600;26.032;2023-04-01T00:27:08;20.25;;;16.55;;
79122;SDS011;68526;44.600;26.032;2023-04-01T00:27:25;19.63;;;16.48;;
79122;SDS011;68526;44.600;26.032;2023-04-01T00:27:41;19.88;;;16.42;;
79122;SDS011;68526;44.600;26.032;2023-04-01T00:27:57;19.23;;;16.20;;
79122;SDS011;68526;44.600;26.032;2023-04-01T00:28:13;18.00;;;16.10;;
79122;SDS011;68526;44.600;26.032;2023-04-01T00:28:30;18.33;;;16.30;;
79122;SDS011;68526;44.600;26.032;2023-04-01T00:28:49;17.80;;;15.75;;
79122;SDS011;68526;44.600;26.032;2023-04-01T00:29:05;17.40;;;15.50;;
79122;SDS011;68526;44.600;26.032;2023-04-01T00:29:21;18.23;;;16.17;;
79122;SDS011;68526;44.600;26.032;2023-04-01T00:29:41;18.83;;;16.65;;
79122;SDS011;68526;44.600;26.032;2023-04-01T00:29:57;19.48;;;17.00;;
79122;SDS011;68526;44.600;26.032;2023-04-01T00:30:13;18.83;;;16.75;;
79122;SDS011;68526;44.600;26.032;2023-04-01T00:30:29;18.58;;;16.58;;
79122;SDS011;68526;44.600;26.032;2023-04-01T00:30:45;20.02;;;16.40;;
79122;SDS011;68526;44.600;26.032;2023-04-01T00:31:04;19.92;;;15.68;;
79122;SDS011;68526;44.600;26.032;2023-04-01T00:31:21;21.52;;;16.23;;
79122;SDS011;68526;44.600;26.032;2023-04-01T00:31:37;20.73;;;17.20;;
79122;SDS011;68526;44.600;26.032;2023-04-01T00:31:53;18.85;;;16.30;;
79122;SDS011;68526;44.600;26.032;2023-04-01T00:32:09;19.15;;;16.10;;
79122;SDS011;68526;44.600;26.032;2023-04-01T00:32:25;20.42;;;16.60;;
79122;SDS011;68526;44.600;26.032;2023-04-01T00:32:41;20.67;;;16.55;;
79122;SDS011;68526;44.600;26.032;2023-04-01T00:32:58;20.42;;;16.85;;
79122;SDS011;68526;44.600;26.032;2023-04-01T00:33:15;21.02;;;16.90;;
79122;SDS011;68526;44.600;26.032;2023-04-01T00:33:31;20.55;;;16.35;;
79122;SDS011;68526;44.600;26.032;2023-04-01T00:33:47;19.67;;;15.85;;
79122;SDS011;68526;44.600;26.032;2023-04-01T00:34:03;20.15;;;16.33;;
79122;SDS011;68526;44.600;26.032;2023-04-01T00:34:20;21.63;;;16.95;;
79122;SDS011;68526;44.600;26.032;2023-04-01T00:34:36;19.60;;;16.57;;
79122;SDS011;68526;44.600;26.032;2023-04-01T00:34:52;20.75;;;16.27;;
79122;SDS011;68526;44.600;26.032;2023-04-01T00:35:08;22.35;;;16.52;;
79122;SDS011;68526;44.600;26.032;2023-04-01T00:35:25;22.00;;;16.45;;
79122;SDS011;68526;44.600;26.032;2023-04-01T00:35:41;19.48;;;16.05;;
79122;SDS011;68526;44.600;26.032;2023-04-01T00:36:04;19.75;;;16.58;;
79122;SDS011;68526;44.600;26.032;2023-04-01T00:36:23;20.92;;;17.20;;
79122;SDS011;68526;44.600;26.032;2023-04-01T00:36:40;21.15;;;16.77;;
79122;SDS011;68526;44.600;26.032;2023-04-01T00:36:56;19.83;;;16.52;;
79122;SDS011;68526;44.600;26.032;2023-04-01T00:37:12;19.80;;;16.80;;
79122;SDS011;68526;44.600;26.032;2023-04-01T00:37:28;20.05;;;17.45;;
79122;SDS011;68526;44.600;26.032;2023-04-01T00:37:45;19.98;;;17.02;;
79122;SDS011;68526;44.600;26.032;2023-04-01T00:38:02;20.63;;;16.30;;
79122;SDS011;68526;44.600;26.032;2023-04-01T00:38:18;19.38;;;16.40;;
79122;SDS011;68526;44.600;26.032;2023-04-01T00:38:34;18.70;;;16.33;;
79122;SDS011;68526;44.600;26.032;2023-04-01T00:38:50;19.52;;;16.52;;
79122;SDS011;68526;44.600;26.032;2023-04-01T00:39:07;20.05;;;16.60;;
79122;SDS011;68526;44.600;26.032;2023-04-01T00:39:23;20.65;;;16.50;;
79122;SDS011;68526;44.600;26.032;2023-04-01T00:39:39;20.15;;;16.27;;
79122;SDS011;68526;44.600;26.032;2023-04-01T00:39:55;20.13;;;16.27;;
79122;SDS011;68526;44.600;26.032;2023-04-01T00:40:22;19.63;;;16.60;;
79122;SDS011;68526;44.600;26.032;2023-04-01T00:40:42;21.10;;;17.45;;
79122;SDS011;68526;44.600;26.032;2023-04-01T00:41:00;20.55;;;17.23;;
79122;SDS011;68526;44.600;26.032;2023-04-01T00:41:16;19.65;;;16.83;;
79122;SDS011;68526;44.600;26.032;2023-04-01T00:41:32;20.23;;;16.97;;
79122;SDS011;68526;44.600;26.032;2023-04-01T00:41:48;19.75;;;16.52;;
79122;SDS011;68526;44.600;26.032;2023-04-01T00:42:05;19.80;;;16.05;;
79122;SDS011;68526;44.600;26.032;2023-04-01T00:42:21;20.52;;;16.85;;
79122;SDS011;68526;44.600;26.032;2023-04-01T00:42:38;19.08;;;16.55;;
79122;SDS011;68526;44.600;26.032;2023-04-01T00:42:54;19.52;;;16.15;;
79122;SDS011;68526;44.600;26.032;2023-04-01T00:43:11;20.30;;;16.50;;
79122;SDS011;68526;44.600;26.032;2023-04-01T00:43:28;19.63;;;16.80;;
79122;SDS011;68526;44.600;26.032;2023-04-01T00:43:46;19.08;;;16.27;;
79122;SDS011;68526;44.600;26.032;2023-04-01T00:44:16;18.80;;;16.80;;
79122;SDS011;68526;44.600;26.032;2023-04-01T00:44:36;19.60;;;16.67;;
79122;SDS011;68526;44.600;26.032;2023-04-01T00:44:54;19.00;;;16.45;;
79122;SDS011;68526;44.600;26.032;2023-04-01T00:45:30;18.70;;;16.38;;
79122;SDS011;68526;44.600;26.032;2023-04-01T00:45:49;19.13;;;16.67;;
79122;SDS011;68526;44.600;26.032;2023-04-01T00:46:05;19.42;;;17.13;;
79122;SDS011;68526;44.600;26.032;2023-04-01T00:46:20;19.63;;;17.13;;
79122;SDS011;68526;44.600;26.032;2023-04-01T00:46:36;19.23;;;16.47;;
79122;SDS011;68526;44.600;26.032;2023-04-01T00:46:52;19.80;;;16.20;;
79122;SDS011;68526;44.600;26.032;2023-04-01T00:47:09;19.65;;;16.13;;
79122;SDS011;68526;44.600;26.032;2023-04-01T00:47:25;18.67;;;15.63;;
79122;SDS011;68526;44.600;26.032;2023-04-01T00:47:42;18.90;;;16.05;;
79122;SDS011;68526;44.600;26.032;2023-04-01T00:47:59;19.83;;;17.00;;
79122;SDS011;68526;44.600;26.032;2023-04-01T00:48:20;20.48;;;16.75;;
79122;SDS011;68526;44.600;26.032;2023-04-01T00:48:39;18.75;;;16.52;;
79122;SDS011;68526;44.600;26.032;2023-04-01T00:48:59;18.83;;;16.83;;
79122;SDS011;68526;44.600;26.032;2023-04-01T00:49:16;19.52;;;16.92;;
79122;SDS011;68526;44.600;26.032;2023-04-01T00:49:34;18.80;;;16.33;;
79122;SDS011;68526;44.600;26.032;2023-04-01T00:49:53;19.20;;;16.25;;
79122;SDS011;68526;44.600;26.032;2023-04-01T00:50:10;20.08;;;16.88;;
79122;SDS011;68526;44.600;26.032;2023-04-01T00:50:26;19.83;;;16.60;;
79122;SDS011;68526;44.600;26.032;2023-04-01T00:50:46;18.60;;;16.13;;
79122;SDS011;68526;44.600;26.032;2023-04-01T00:51:06;18.52;;;16.38;;
79122;SDS011;68526;44.600;26.032;2023-04-01T00:51:25;18.27;;;16.30;;
79122;SDS011;68526;44.600;26.032;2023-04-01T00:51:45;18.63;;;16.63;;
79122;SDS011;68526;44.600;26.032;2023-04-01T00:52:05;19.15;;;16.73;;
79122;SDS011;68526;44.600;26.032;2023-04-01T00:52:24;18.58;;;16.08;;
79122;SDS011;68526;44.600;26.032;2023-04-01T00:52:40;18.27;;;15.45;;
79122;SDS011;68526;44.600;26.032;2023-04-01T00:52:58;18.67;;;15.77;;
79122;SDS011;68526;44.600;26.032;2023-04-01T00:53:16;18.20;;;16.20;;
79122;SDS011;68526;44.600;26.032;2023-04-01T00:53:36;18.48;;;16.48;;
79122;SDS011;68526;44.600;26.032;2023-04-01T00:53:57;19.35;;;16.45;;
79122;SDS011;68526;44.600;26.032;2023-04-01T00:54:16;19.20;;;16.27;;
79122;SDS011;68526;44.600;26.032;2023-04-01T00:54:34;19.55;;;15.90;;
79122;SDS011;68526;44.600;26.032;2023-04-01T00:54:52;19.08;;;16.02;;
79122;SDS011;68526;44.600;26.032;2023-04-01T00:55:14;18.38;;;15.85;;
79122;SDS011;68526;44.600;26.032;2023-04-01T00:55:32;18.13;;;16.15;;
79122;SDS011;68526;44.600;26.032;2023-04-01T00:55:54;19.33;;;16.52;;
79122;SDS011;68526;44.600;26.032;2023-04-01T00:56:14;19.88;;;16.73;;
79122;SDS011;68526;44.600;26.032;2023-04-01T00:56:35;18.75;;;16.55;;
79122;SDS011;68526;44.600;26.032;2023-04-01T00:56:55;19.75;;;16.42;;
79122;SDS011;68526;44.600;26.032;2023-04-01T00:57:15;19.05;;;16.48;;
79122;SDS011;68526;44.600;26.032;2023-04-01T00:57:36;18.33;;;16.42;;
79122;SDS011;68526;44.600;26.032;2023-04-01T00:57:55;18.55;;;16.58;;
79122;SDS011;68526;44.600;26.032;2023-04-01T00:58:14;19.83;;;16.98;;
79122;SDS011;68526;44.600;26.032;2023-04-01T00:58:35;20.15;;;16.63;;
79122;SDS011;68526;44.600;26.032;2023-04-01T00:58:56;19.55;;;16.63;;
79122;SDS011;68526;44.600;26.032;2023-04-01T00:59:16;18.70;;;16.50;;
79122;SDS011;68526;44.600;26.032;2023-04-01T00:59:38;18.08;;;16.15;;
79122;SDS011;68526;44.600;26.032;2023-04-01T00:59:57;19.88;;;16.40;;
79122;SDS011;68526;44.600;26.032;2023-04-01T01:00:14;20.60;;;15.85;;
79122;SDS011;68526;44.600;26.032;2023-04-01T01:00:32;19.75;;;16.25;;
79122;SDS011;68526;44.600;26.032;2023-04-01T01:00:49;18.42;;;16.33;;
79122;SDS011;68526;44.600;26.032;2023-04-01T01:01:06;19.70;;;16.75;;
79122;SDS011;68526;44.600;26.032;2023-04-01T01:01:24;18.43;;;16.30;;
79122;SDS011;68526;44.600;26.032;2023-04-01T01:01:42;18.45;;;16.02;;
79122;SDS011;68526;44.600;26.032;2023-04-01T01:01:57;20.05;;;16.52;;
79122;SDS011;68526;44.600;26.032;2023-04-01T01:02:14;19.15;;;16.65;;
79122;SDS011;68526;44.600;26.032;2023-04-01T01:02:31;19.15;;;16.42;;
79122;SDS011;68526;44.600;26.032;2023-04-01T01:02:49;20.33;;;16.85;;
79122;SDS011;68526;44.600;26.032;2023-04-01T01:03:06;20.00;;;16.33;;
79122;SDS011;68526;44.600;26.032;2023-04-01T01:03:23;19.60;;;16.63;;
79122;SDS011;68526;44.600;26.032;2023-04-01T01:03:39;19.05;;;16.67;;
79122;SDS011;68526;44.600;26.032;2023-04-01T01:03:55;19.20;;;16.23;;
79122;SDS011;68526;44.600;26.032;2023-04-01T01:04:20;18.77;;;16.73;;
79122;SDS011;68526;44.600;26.032;2023-04-01T01:04:38;20.67;;;17.33;;
79122;SDS011;68526;44.600;26.032;2023-04-01T01:04:55;19.55;;;16.77;;
79122;SDS011;68526;44.600;26.032;2023-04-01T01:05:11;18.95;;;16.27;;
79122;SDS011;68526;44.600;26.032;2023-04-01T01:05:31;19.20;;;16.35;;
79122;SDS011;68526;44.600;26.032;2023-04-01T01:06:39;20.38;;;17.05;;
79122;SDS011;68526;44.600;26.032;2023-04-01T01:07:06;20.15;;;17.35;;
79122;SDS011;68526;44.600;26.032;2023-04-01T01:07:35;21.40;;;18.20;;
79122;SDS011;68526;44.600;26.032;2023-04-01T01:08:00;20.60;;;17.80;;
79122;SDS011;68526;44.600;26.032;2023-04-01T01:08:21;20.38;;;17.63;;
79122;SDS011;68526;44.600;26.032;2023-04-01T01:09:36;22.35;;;18.08;;
79122;SDS011;68526;44.600;26.032;2023-04-01T01:10:02;21.50;;;18.45;;
79122;SDS011;68526;44.600;26.032;2023-04-01T01:10:23;21.48;;;18.92;;
79122;SDS011;68526;44.600;26.032;2023-04-01T01:10:45;20.42;;;18.30;;
79122;SDS011;68526;44.600;26.032;2023-04-01T01:11:05;21.23;;;18.95;;
79122;SDS011;68526;44.600;26.032;2023-04-01T01:11:29;22.10;;;18.50;;
79122;SDS011;68526;44.600;26.032;2023-04-01T01:11:54;22.02;;;19.25;;
79122;SDS011;68526;44.600;26.032;2023-04-01T01:12:18;22.95;;;18.35;;
79122;SDS011;68526;44.600;26.032;2023-04-01T01:12:40;22.13;;;18.65;;
79122;SDS011;68526;44.600;26.032;2023-04-01T01:13:02;22.92;;;19.20;;
79122;SDS011;68526;44.600;26.032;2023-04-01T01:13:26;23.23;;;18.95;;
79122;SDS011;68526;44.600;26.032;2023-04-01T01:13:51;22.52;;;19.42;;
79122;SDS011;68526;44.600;26.032;2023-04-01T01:14:19;21.92;;;18.88;;
79122;SDS011;68526;44.600;26.032;2023-04-01T01:14:48;21.42;;;18.52;;
79122;SDS011;68526;44.600;26.032;2023-04-01T01:15:12;21.23;;;18.48;;
79122;SDS011;68526;44.600;26.032;2023-04-01T01:15:36;21.17;;;18.40;;
79122;SDS011;68526;44.600;26.032;2023-04-01T01:15:56;21.88;;;18.50;;
79122;SDS011;68526;44.600;26.032;2023-04-01T01:16:17;21.20;;;18.63;;
79122;SDS011;68526;44.600;26.032;2023-04-01T01:16:41;21.05;;;18.15;;
79122;SDS011;68526;44.600;26.032;2023-04-01T01:17:02;21.80;;;19.13;;
79122;SDS011;68526;44.600;26.032;2023-04-01T01:17:27;21.63;;;18.15;;
79122;SDS011;68526;44.600;26.032;2023-04-01T01:17:54;21.20;;;17.65;;
79122;SDS011;68526;44.600;26.032;2023-04-01T01:18:16;21.20;;;18.45;;
79122;SDS011;68526;44.600;26.032;2023-04-01T01:18:42;22.15;;;18.73;;
79122;SDS011;68526;44.600;26.032;2023-04-01T01:19:04;21.83;;;19.10;;
79122;SDS011;68526;44.600;26.032;2023-04-01T01:20:16;21.55;;;18.20;;
79122;SDS011;68526;44.600;26.032;2023-04-01T01:20:57;22.02;;;18.48;;
79122;SDS011;68526;44.600;26.032;2023-04-01T01:21:42;22.08;;;18.85;;
79122;SDS011;68526;44.600;26.032;2023-04-01T01:22:24;20.67;;;18.08;;
79122;SDS011;68526;44.600;26.032;2023-04-01T01:22:52;21.17;;;18.05;;
79122;SDS011;68526;44.600;26.032;2023-04-01T01:24:22;23.08;;;18.75;;
79122;SDS011;68526;44.600;26.032;2023-04-01T01:24:57;21.52;;;18.00;;
79122;SDS011;68526;44.600;26.032;2023-04-01T01:25:30;19.95;;;17.75;;
79122;SDS011;68526;44.600;26.032;2023-04-01T01:25:58;20.17;;;17.42;;
79122;SDS011;68526;44.600;26.032;2023-04-01T01:26:42;22.80;;;19.25;;
79122;SDS011;68526;44.600;26.032;2023-04-01T01:27:07;21.02;;;18.50;;
79122;SDS011;68526;44.600;26.032;2023-04-01T01:27:26;20.98;;;17.85;;
79122;SDS011;68526;44.600;26.032;2023-04-01T01:27:46;21.40;;;18.35;;
79122;SDS011;68526;44.600;26.032;2023-04-01T01:28:21;21.60;;;17.85;;
79122;SDS011;68526;44.600;26.032;2023-04-01T01:28:52;21.70;;;18.02;;
79122;SDS011;68526;44.600;26.032;2023-04-01T01:29:27;20.88;;;17.75;;
79122;SDS011;68526;44.600;26.032;2023-04-01T01:30:00;21.30;;;18.33;;
79122;SDS011;68526;44.600;26.032;2023-04-01T01:30:38;21.90;;;18.50;;
79122;SDS011;68526;44.600;26.032;2023-04-01T01:31:07;19.85;;;17.60;;
79122;SDS011;68526;44.600;26.032;2023-04-01T01:31:32;21.63;;;18.17;;
79122;SDS011;68526;44.600;26.032;2023-04-01T01:31:53;21.17;;;18.48;;
79122;SDS011;68526;44.600;26.032;2023-04-01T01:32:19;20.90;;;18.45;;
79122;SDS011;68526;44.600;26.032;2023-04-01T01:32:52;20.77;;;18.10;;
79122;SDS011;68526;44.600;26.032;2023-04-01T01:33:26;22.05;;;18.98;;
79122;SDS011;68526;44.600;26.032;2023-04-01T01:33:58;21.02;;;18.13;;
79122;SDS011;68526;44.600;26.032;2023-04-01T01:34:26;20.77;;;18.52;;
79122;SDS011;68526;44.600;26.032;2023-04-01T01:34:48;20.98;;;17.35;;
79122;SDS011;68526;44.600;26.032;2023-04-01T01:35:14;22.10;;;17.83;;
79122;SDS011;68526;44.600;26.032;2023-04-01T01:35:36;20.92;;;18.33;;
79122;SDS011;68526;44.600;26.032;2023-04-01T01:35:54;20.88;;;18.55;;
79122;SDS011;68526;44.600;26.032;2023-04-01T01:36:13;20.52;;;18.27;;
79122;SDS011;68526;44.600;26.032;2023-04-01T01:36:31;20.75;;;18.23;;
79122;SDS011;68526;44.600;26.032;2023-04-01T01:36:50;22.65;;;18.45;;
79122;SDS011;68526;44.600;26.032;2023-04-01T01:37:14;21.88;;;18.10;;
79122;SDS011;68526;44.600;26.032;2023-04-01T01:37:32;21.05;;;18.23;;
79122;SDS011;68526;44.600;26.032;2023-04-01T01:37:50;20.73;;;18.17;;
79122;SDS011;68526;44.600;26.032;2023-04-01T01:38:10;22.00;;;18.23;;
79122;SDS011;68526;44.600;26.032;2023-04-01T01:38:31;22.98;;;18.55;;
79122;SDS011;68526;44.600;26.032;2023-04-01T01:38:49;23.35;;;18.73;;
79122;SDS011;68526;44.600;26.032;2023-04-01T01:39:07;22.23;;;18.17;;
79122;SDS011;68526;44.600;26.032;2023-04-01T01:39:25;21.83;;;17.73;;
79122;SDS011;68526;44.600;26.032;2023-04-01T01:39:46;20.98;;;17.52;;
79122;SDS011;68526;44.600;26.032;2023-04-01T01:40:05;21.70;;;17.65;;
79122;SDS011;68526;44.600;26.032;2023-04-01T01:40:24;23.02;;;18.45;;
79122;SDS011;68526;44.600;26.032;2023-04-01T01:40:43;22.00;;;18.50;;
79122;SDS011;68526;44.600;26.032;2023-04-01T01:41:04;21.08;;;18.33;;
79122;SDS011;68526;44.600;26.032;2023-04-01T01:41:22;22.23;;;18.83;;
79122;SDS011;68526;44.600;26.032;2023-04-01T01:41:41;22.63;;;18.90;;
79122;SDS011;68526;44.600;26.032;2023-04-01T01:42:02;22.88;;;19.92;;
79122;SDS011;68526;44.600;26.032;2023-04-01T01:42:21;23.38;;;19.75;;
79122;SDS011;68526;44.600;26.032;2023-04-01T01:42:40;21.88;;;18.33;;
79122;SDS011;68526;44.600;26.032;2023-04-01T01:43:03;22.13;;;17.97;;
79122;SDS011;68526;44.600;26.032;2023-04-01T01:43:22;23.00;;;18.17;;
79122;SDS011;68526;44.600;26.032;2023-04-01T01:43:42;21.67;;;18.45;;
79122;SDS011;68526;44.600;26.032;2023-04-01T01:44:01;20.95;;;18.50;;
79122;SDS011;68526;44.600;26.032;2023-04-01T01:44:20;23.30;;;18.70;;
79122;SDS011;68526;44.600;26.032;2023-04-01T01:44:37;23.08;;;18.08;;
79122;SDS011;68526;44.600;26.032;2023-04-01T01:44:55;21.23;;;18.13;;
79122;SDS011;68526;44.600;26.032;2023-04-01T01:45:16;21.38;;;18.45;;
79122;SDS011;68526;44.600;26.032;2023-04-01T01:45:36;22.67;;;19.67;;
79122;SDS011;68526;44.600;26.032;2023-04-01T01:45:56;22.50;;;19.65;;
79122;SDS011;68526;44.600;26.032;2023-04-01T01:46:16;21.40;;;18.52;;
79122;SDS011;68526;44.600;26.032;2023-04-01T01:46:35;21.85;;;18.48;;
79122;SDS011;68526;44.600;26.032;2023-04-01T01:46:55;22.60;;;19.05;;
79122;SDS011;68526;44.600;26.032;2023-04-01T01:47:11;21.08;;;18.40;;
79122;SDS011;68526;44.600;26.032;2023-04-01T01:47:30;22.55;;;18.45;;
79122;SDS011;68526;44.600;26.032;2023-04-01T01:47:48;22.02;;;18.40;;
79122;SDS011;68526;44.600;26.032;2023-04-01T01:48:05;23.27;;;19.02;;
79122;SDS011;68526;44.600;26.032;2023-04-01T01:48:24;23.10;;;19.38;;
79122;SDS011;68526;44.600;26.032;2023-04-01T01:48:43;22.45;;;19.27;;
79122;SDS011;68526;44.600;26.032;2023-04-01T01:49:01;22.30;;;19.83;;
79122;SDS011;68526;44.600;26.032;2023-04-01T01:49:20;23.05;;;19.83;;
79122;SDS011;68526;44.600;26.032;2023-04-01T01:49:37;22.98;;;19.33;;
79122;SDS011;68526;44.600;26.032;2023-04-01T01:49:55;22.40;;;18.87;;
79122;SDS011;68526;44.600;26.032;2023-04-01T01:50:14;22.92;;;19.67;;
79122;SDS011;68526;44.600;26.032;2023-04-01T01:50:32;22.40;;;19.50;;
79122;SDS011;68526;44.600;26.032;2023-04-01T01:50:49;22.08;;;19.27;;
79122;SDS011;68526;44.600;26.032;2023-04-01T01:51:06;23.50;;;19.15;;
79122;SDS011;68526;44.600;26.032;2023-04-01T01:51:22;24.17;;;19.63;;
79122;SDS011;68526;44.600;26.032;2023-04-01T01:51:39;23.63;;;20.02;;
79122;SDS011;68526;44.600;26.032;2023-04-01T01:51:58;22.98;;;19.17;;
79122;SDS011;68526;44.600;26.032;2023-04-01T01:52:13;22.50;;;19.20;;
79122;SDS011;68526;44.600;26.032;2023-04-01T01:52:29;23.33;;;19.58;;
79122;SDS011;68526;44.600;26.032;2023-04-01T01:52:45;21.75;;;18.58;;
79122;SDS011;68526;44.600;26.032;2023-04-01T01:53:04;21.45;;;18.67;;
79122;SDS011;68526;44.600;26.032;2023-04-01T01:53:22;22.98;;;19.55;;
79122;SDS011;68526;44.600;26.032;2023-04-01T01:53:37;23.15;;;19.92;;
79122;SDS011;68526;44.600;26.032;2023-04-01T01:53:54;22.17;;;19.50;;
79122;SDS011;68526;44.600;26.032;2023-04-01T01:54:11;22.40;;;18.83;;